createdAt,value
2023-06-06T00:00:13.263Z,46.32
2023-06-06T00:03:27.939Z,46.32
2023-06-06T00:06:25.513Z,46.30
2023-06-06T00:09:22.106Z,46.45
2023-06-06T00:12:15.433Z,46.43
2023-06-06T00:15:13.167Z,46.48
2023-06-06T00:18:08.155Z,46.44
2023-06-06T00:21:02.879Z,46.19
2023-06-06T00:23:57.672Z,46.34
2023-06-06T00:26:52.067Z,46.34
2023-06-06T00:29:46.042Z,46.44
2023-06-06T00:32:53.426Z,46.20
2023-06-06T00:35:39.328Z,46.14
2023-06-06T00:38:33.638Z,46.13
2023-06-06T00:41:30.305Z,46.12
2023-06-06T00:44:26.829Z,46.07
2023-06-06T00:47:21.196Z,46.22
2023-06-06T00:50:13.555Z,46.10
2023-06-06T00:53:31.362Z,45.93
2023-06-06T00:56:41.352Z,45.93
2023-06-06T00:59:58.344Z,46.06
2023-06-06T01:03:12.449Z,46.15
2023-06-06T01:06:37.389Z,45.98
2023-06-06T01:10:47.351Z,46.04
2023-06-06T01:14:05.372Z,46.00
2023-06-06T01:17:34.379Z,46.05
2023-06-06T01:20:48.389Z,45.97
2023-06-06T01:24:05.487Z,45.98
2023-06-06T01:28:56.754Z,45.99
2023-06-06T01:32:36.017Z,45.88
2023-06-06T01:36:17.349Z,46.08
2023-06-06T01:39:34.653Z,46.16
2023-06-06T01:42:30.138Z,46.01
2023-06-06T01:45:29.027Z,45.99
2023-06-06T01:48:23.769Z,46.07
2023-06-06T01:51:18.461Z,46.01
2023-06-06T01:54:12.947Z,46.00
2023-06-06T01:57:08.798Z,46.00
2023-06-06T02:00:06.933Z,46.45
2023-06-06T02:03:03.752Z,46.13
2023-06-06T02:05:58.376Z,46.17
2023-06-06T02:09:16.700Z,46.41
2023-06-06T02:12:23.907Z,46.15
2023-06-06T02:15:50.712Z,46.12
2023-06-06T02:19:20.724Z,46.38
2023-06-06T02:22:37.747Z,47.14
2023-06-06T02:25:54.698Z,48.40
2023-06-06T02:29:11.725Z,49.25
2023-06-06T02:32:07.072Z,50.14
2023-06-06T02:35:02.301Z,51.01
2023-06-06T02:37:57.016Z,51.49
2023-06-06T02:40:51.742Z,51.81
2023-06-06T02:43:47.453Z,52.22
2023-06-06T02:46:28.626Z,52.88
2023-06-06T02:49:23.051Z,53.02
2023-06-06T02:52:17.452Z,53.52
2023-06-06T02:55:19.723Z,54.12
2023-06-06T02:58:55.727Z,54.26
2023-06-06T03:02:02.833Z,54.80
2023-06-06T03:05:21.482Z,54.88
2023-06-06T03:08:40.748Z,55.98
2023-06-06T03:11:50.749Z,54.99
2023-06-06T03:14:58.413Z,55.32
2023-06-06T03:18:00.074Z,54.91
2023-06-06T03:20:59.032Z,55.23
2023-06-06T03:24:34.722Z,55.42
2023-06-06T03:27:55.744Z,56.31
2023-06-06T03:31:19.994Z,56.17
2023-06-06T03:34:36.990Z,57.02
2023-06-06T03:37:54.725Z,56.73
2023-06-06T03:41:09.016Z,55.94
2023-06-06T03:44:25.713Z,55.77
2023-06-06T03:47:33.741Z,56.23
2023-06-06T03:50:50.747Z,56.01
2023-06-06T03:53:45.214Z,56.70
2023-06-06T03:56:41.695Z,56.96
2023-06-06T03:59:36.634Z,57.00
2023-06-06T04:02:30.966Z,56.42
2023-06-06T04:05:36.732Z,56.60
2023-06-06T04:08:32.107Z,56.69
2023-06-06T04:11:27.312Z,56.39
2023-06-06T04:14:24.221Z,56.42
2023-06-06T04:17:19.631Z,55.98
2023-06-06T04:20:15.062Z,56.16
2023-06-06T04:23:14.604Z,56.44
2023-06-06T04:26:11.459Z,55.95
2023-06-06T04:29:08.304Z,55.55
2023-06-06T04:32:14.722Z,55.50
2023-06-06T04:35:35.326Z,55.55
2023-06-06T04:38:30.346Z,55.31
2023-06-06T04:45:02.175Z,55.01
2023-06-06T04:47:56.652Z,54.54
2023-06-06T04:50:53.282Z,54.29
2023-06-06T04:53:47.334Z,54.69
2023-06-06T04:56:41.653Z,53.54
2023-06-06T04:59:36.346Z,54.06
2023-06-06T05:02:30.670Z,53.58
2023-06-06T05:05:24.978Z,53.07
2023-06-06T05:08:21.963Z,53.46
2023-06-06T05:11:16.113Z,53.11
2023-06-06T05:14:10.711Z,52.88
2023-06-06T05:17:05.216Z,52.40
2023-06-06T05:19:59.281Z,51.94
2023-06-06T05:22:53.254Z,51.52
2023-06-06T05:26:09.156Z,51.11
2023-06-06T05:29:03.229Z,50.82
2023-06-06T05:31:57.569Z,51.35
2023-06-06T05:34:51.618Z,50.81
2023-06-06T05:37:49.452Z,51.18
2023-06-06T05:40:43.663Z,51.27
2023-06-06T05:43:38.273Z,50.55
2023-06-06T05:46:32.644Z,50.76
2023-06-06T05:49:27.026Z,50.52
2023-06-06T05:52:21.655Z,50.34
2023-06-06T05:55:32.411Z,50.10
2023-06-06T05:58:26.582Z,49.70
2023-06-06T06:01:21.248Z,49.96
2023-06-06T06:04:15.543Z,50.22
2023-06-06T06:07:11.462Z,50.25
2023-06-06T06:10:05.844Z,50.11
2023-06-06T06:13:00.540Z,50.28
2023-06-06T06:15:55.613Z,50.21
2023-06-06T06:18:49.902Z,50.28
2023-06-06T06:21:44.120Z,50.24
2023-06-06T06:24:38.347Z,50.43
2023-06-06T06:27:32.806Z,50.31
2023-06-06T06:30:27.673Z,50.45
2023-06-06T06:33:24.097Z,49.90
2023-06-06T06:36:18.132Z,50.05
2023-06-06T06:39:18.790Z,49.93
2023-06-06T06:42:13.602Z,50.07
2023-06-06T06:45:08.970Z,50.13
2023-06-06T06:48:03.658Z,49.89
2023-06-06T06:50:57.752Z,50.18
2023-06-06T06:53:53.087Z,50.33
2023-06-06T06:56:47.494Z,50.42
2023-06-06T06:59:42.886Z,49.89
2023-06-06T07:02:40.784Z,50.09
2023-06-06T07:05:39.594Z,50.26
2023-06-06T07:08:53.675Z,50.09
2023-06-06T07:11:47.915Z,49.99
2023-06-06T07:14:42.358Z,50.14
2023-06-06T07:17:36.805Z,50.06
2023-06-06T07:20:31.200Z,50.08
2023-06-06T07:23:25.204Z,50.07
2023-06-06T07:26:20.476Z,50.05
2023-06-06T07:29:14.713Z,50.22
2023-06-06T07:32:09.813Z,50.39
2023-06-06T07:35:04.952Z,50.65
2023-06-06T07:37:59.128Z,50.46
2023-06-06T07:40:53.106Z,50.46
2023-06-06T07:43:47.444Z,50.46
2023-06-06T07:46:41.594Z,50.55
2023-06-06T07:49:36.035Z,50.51
2023-06-06T07:52:32.179Z,50.44
2023-06-06T07:55:26.856Z,50.93
2023-06-06T07:58:26.843Z,50.58
2023-06-06T08:01:22.222Z,50.53
2023-06-06T08:04:16.068Z,50.74
2023-06-06T08:07:10.987Z,50.74
2023-06-06T08:10:05.439Z,51.16
2023-06-06T08:13:00.179Z,50.83
2023-06-06T08:15:54.148Z,51.00
2023-06-06T08:18:48.491Z,51.20
2023-06-06T08:21:42.639Z,51.00
2023-06-06T08:24:38.432Z,50.86
2023-06-06T08:27:33.167Z,51.00
2023-06-06T08:30:27.321Z,50.94
2023-06-06T08:33:21.826Z,51.38
2023-06-06T08:36:17.156Z,51.28
2023-06-06T08:39:11.582Z,51.84
2023-06-06T08:42:09.768Z,51.39
2023-06-06T08:45:06.975Z,51.58
2023-06-06T08:48:03.427Z,51.76
2023-06-06T08:51:00.538Z,51.78
2023-06-06T08:53:56.252Z,52.62
2023-06-06T08:56:53.062Z,51.76
2023-06-06T08:59:47.221Z,51.56
2023-06-06T09:02:42.830Z,50.37
2023-06-06T09:05:28.096Z,50.27
2023-06-06T09:08:22.782Z,50.60
2023-06-06T09:11:17.545Z,50.81
2023-06-06T09:14:12.198Z,50.83
2023-06-06T09:17:07.510Z,50.78
2023-06-06T09:20:06.621Z,50.52
2023-06-06T09:23:02.079Z,50.51
2023-06-06T09:25:56.141Z,50.56
2023-06-06T09:28:51.013Z,50.69
2023-06-06T09:31:45.345Z,50.54
2023-06-06T09:34:42.122Z,50.17
2023-06-06T09:37:45.344Z,50.10
2023-06-06T09:40:48.200Z,50.10
2023-06-06T09:43:42.373Z,50.43
2023-06-06T09:46:40.313Z,50.31
2023-06-06T09:49:38.598Z,50.10
2023-06-06T09:52:33.709Z,49.73
2023-06-06T09:55:28.590Z,49.24
2023-06-06T09:58:24.417Z,49.33
2023-06-06T10:01:18.658Z,49.40
2023-06-06T10:04:13.945Z,49.70
2023-06-06T10:07:10.004Z,50.34
2023-06-06T10:10:04.482Z,50.60
2023-06-06T10:13:01.911Z,50.63
2023-06-06T10:15:59.651Z,50.67
2023-06-06T10:18:55.376Z,50.39
2023-06-06T10:21:50.813Z,50.33
2023-06-06T10:24:45.123Z,50.41
2023-06-06T10:27:53.230Z,50.53
2023-06-06T10:30:59.224Z,50.42
2023-06-06T10:34:01.635Z,50.83
2023-06-06T10:36:58.549Z,51.14
2023-06-06T10:40:09.569Z,50.95
2023-06-06T10:43:19.597Z,50.97
2023-06-06T10:46:27.196Z,50.90
2023-06-06T10:49:22.247Z,50.85
2023-06-06T10:52:08.690Z,51.31
2023-06-06T10:55:15.642Z,51.53
2023-06-06T10:58:15.076Z,51.68
2023-06-06T11:01:10.618Z,52.15
2023-06-06T11:04:18.379Z,51.86
2023-06-06T11:07:20.760Z,51.55
2023-06-06T11:10:14.833Z,51.19
2023-06-06T11:13:30.128Z,50.25
2023-06-06T11:17:09.137Z,50.06
2023-06-06T11:20:04.571Z,50.53
2023-06-06T11:23:04.694Z,51.25
2023-06-06T11:25:58.970Z,51.70
2023-06-06T11:28:54.694Z,51.43
2023-06-06T11:31:50.041Z,51.97
2023-06-06T11:34:44.062Z,52.11
2023-06-06T11:37:38.219Z,52.55
2023-06-06T11:40:32.463Z,52.48
2023-06-06T11:43:26.909Z,52.52
2023-06-06T11:46:21.239Z,52.66
2023-06-06T11:49:15.699Z,52.66
2023-06-06T11:52:11.590Z,52.91
2023-06-06T11:55:06.525Z,53.24
2023-06-06T11:58:05.797Z,53.33
2023-06-06T12:01:01.771Z,53.66
2023-06-06T12:03:56.393Z,53.76
2023-06-06T12:06:56.171Z,53.46
2023-06-06T12:10:00.582Z,53.66
2023-06-06T12:12:55.139Z,53.77
2023-06-06T12:15:53.050Z,53.70
2023-06-06T12:18:53.195Z,53.74
2023-06-06T12:21:52.253Z,53.51
2023-06-06T12:24:50.893Z,54.12
2023-06-06T12:27:46.762Z,52.98
2023-06-06T12:30:45.597Z,53.07
2023-06-06T12:33:53.229Z,53.30
2023-06-06T12:37:10.530Z,53.44
2023-06-06T12:40:10.954Z,53.39
2023-06-06T12:43:07.945Z,53.51
2023-06-06T12:46:02.322Z,53.64
2023-06-06T12:48:56.948Z,54.15
2023-06-06T12:51:52.367Z,53.53
2023-06-06T12:54:46.595Z,54.10
2023-06-06T12:57:40.828Z,54.29
2023-06-06T13:00:35.168Z,54.71
2023-06-06T13:03:29.416Z,54.88
2023-06-06T13:06:23.970Z,55.22
2023-06-06T13:09:20.192Z,55.43
2023-06-06T13:12:14.414Z,55.69
2023-06-06T13:15:11.180Z,55.74
2023-06-06T13:18:06.316Z,55.97
2023-06-06T13:21:02.930Z,56.59
2023-06-06T13:23:57.091Z,56.73
2023-06-06T13:26:51.354Z,56.98
2023-06-06T13:29:46.044Z,57.32
2023-06-06T13:32:40.297Z,57.02
2023-06-06T13:35:34.846Z,57.46
2023-06-06T13:38:29.162Z,58.62
2023-06-06T13:41:23.555Z,58.21
2023-06-06T13:44:22.981Z,58.41
2023-06-06T13:47:19.360Z,58.40
2023-06-06T13:50:13.998Z,58.17
2023-06-06T13:53:08.504Z,58.59
2023-06-06T13:56:02.542Z,58.17
2023-06-06T13:58:56.545Z,59.20
2023-06-06T14:01:52.989Z,58.34
2023-06-06T14:04:47.206Z,59.00
2023-06-06T14:07:41.446Z,60.27
2023-06-06T14:10:35.935Z,59.43
2023-06-06T14:13:30.022Z,59.38
2023-06-06T14:16:24.114Z,59.12
2023-06-06T14:19:35.832Z,58.79
2023-06-06T14:22:34.940Z,59.53
2023-06-06T14:25:28.939Z,60.57
2023-06-06T14:28:06.384Z,59.95
2023-06-06T14:31:00.587Z,59.54
2023-06-06T14:33:54.831Z,59.59
2023-06-06T14:36:48.943Z,60.57
2023-06-06T14:39:43.498Z,61.75
2023-06-06T14:42:37.669Z,60.97
2023-06-06T14:45:32.019Z,61.42
2023-06-06T14:48:26.593Z,62.38
2023-06-06T14:51:20.810Z,61.48
2023-06-06T14:54:15.629Z,61.75
2023-06-06T14:57:11.399Z,61.72
2023-06-06T15:00:10.742Z,61.12
2023-06-06T15:03:05.946Z,62.32
2023-06-06T15:06:01.345Z,61.74
2023-06-06T15:08:56.017Z,62.10
2023-06-06T15:11:54.057Z,62.05
2023-06-06T15:14:49.599Z,61.33
2023-06-06T15:17:43.552Z,61.47
2023-06-06T15:20:37.992Z,61.31
2023-06-06T15:23:34.740Z,61.12
2023-06-06T15:26:29.076Z,62.18
2023-06-06T15:29:23.255Z,61.97
2023-06-06T15:32:18.011Z,61.46
2023-06-06T15:35:13.325Z,62.59
2023-06-06T15:38:07.867Z,62.16
2023-06-06T15:41:02.029Z,62.34
2023-06-06T15:43:56.523Z,62.10
2023-06-06T15:46:50.968Z,62.39
2023-06-06T15:49:45.260Z,61.31
2023-06-06T15:52:39.340Z,61.73
2023-06-06T15:55:33.428Z,61.66
2023-06-06T15:58:27.531Z,61.17
2023-06-06T16:01:21.615Z,61.15
2023-06-06T16:04:16.289Z,61.12
2023-06-06T16:07:11.477Z,61.39
2023-06-06T16:10:07.668Z,61.07
2023-06-06T16:13:01.836Z,60.51
2023-06-06T16:15:56.034Z,61.05
2023-06-06T16:18:50.777Z,60.88
2023-06-06T16:21:45.157Z,60.94
2023-06-06T16:24:40.238Z,60.42
2023-06-06T16:27:34.258Z,60.26
2023-06-06T16:30:29.108Z,60.37
2023-06-06T16:33:25.166Z,60.38
2023-06-06T16:36:20.533Z,60.54
2023-06-06T16:39:16.064Z,59.97
2023-06-06T16:42:14.719Z,60.11
2023-06-06T16:45:11.388Z,59.91
2023-06-06T16:48:07.686Z,60.99
2023-06-06T16:51:02.055Z,60.21
2023-06-06T16:53:56.888Z,60.16
2023-06-06T16:56:51.312Z,60.01
2023-06-06T16:59:45.698Z,59.91
2023-06-06T17:02:39.858Z,59.75
2023-06-06T17:05:33.930Z,59.53
2023-06-06T17:08:28.164Z,59.39
2023-06-06T17:11:24.108Z,59.31
2023-06-06T17:14:18.454Z,59.29
2023-06-06T17:17:14.039Z,59.18
2023-06-06T17:20:10.295Z,58.93
2023-06-06T17:23:04.261Z,58.98
2023-06-06T17:25:58.785Z,59.03
2023-06-06T17:28:53.259Z,58.87
2023-06-06T17:31:47.864Z,58.63
2023-06-06T17:34:42.089Z,58.79
2023-06-06T17:37:36.344Z,58.66
2023-06-06T17:40:31.154Z,58.25
2023-06-06T17:43:25.123Z,58.00
2023-06-06T17:46:19.656Z,58.18
2023-06-06T17:49:15.086Z,58.51
2023-06-06T17:52:10.593Z,58.73
2023-06-06T17:55:05.212Z,58.74
2023-06-06T17:57:59.300Z,58.69
2023-06-06T18:00:53.961Z,58.47
2023-06-06T18:03:48.944Z,58.20
2023-06-06T18:06:43.791Z,58.70
2023-06-06T18:09:40.242Z,58.24
2023-06-06T18:12:34.969Z,58.17
2023-06-06T18:15:29.487Z,57.90
2023-06-06T18:18:26.044Z,57.95
2023-06-06T18:21:21.412Z,58.47
2023-06-06T18:24:16.032Z,58.78
2023-06-06T18:27:11.680Z,58.33
2023-06-06T18:30:07.823Z,57.90
2023-06-06T18:33:02.385Z,58.23
2023-06-06T18:35:56.594Z,58.10
2023-06-06T18:38:51.904Z,57.83
2023-06-06T18:41:46.043Z,57.82
2023-06-06T18:44:40.902Z,58.09
2023-06-06T18:47:35.960Z,58.10
2023-06-06T18:50:30.763Z,58.46
2023-06-06T18:53:25.710Z,58.52
2023-06-06T18:56:20.451Z,58.29
2023-06-06T18:59:16.967Z,58.60
2023-06-06T19:02:12.153Z,58.99
2023-06-06T19:05:09.981Z,58.48
2023-06-06T19:08:05.113Z,58.45
2023-06-06T19:10:59.681Z,58.03
2023-06-06T19:13:54.258Z,58.21
2023-06-06T19:16:48.889Z,58.22
2023-06-06T19:19:44.965Z,57.79
2023-06-06T19:22:39.192Z,57.90
2023-06-06T19:25:33.613Z,57.84
2023-06-06T19:28:27.785Z,58.22
2023-06-06T19:31:23.046Z,57.72
2023-06-06T19:34:17.087Z,57.96
2023-06-06T19:37:13.376Z,57.98
2023-06-06T19:40:28.554Z,57.88
2023-06-06T19:43:23.946Z,57.81
2023-06-06T19:46:20.420Z,57.90
2023-06-06T19:49:14.788Z,57.85
2023-06-06T19:52:10.959Z,57.80
2023-06-06T19:55:06.015Z,57.82
2023-06-06T19:58:00.396Z,57.77
2023-06-06T20:00:58.699Z,58.34
2023-06-06T20:03:53.355Z,57.97
2023-06-06T20:06:47.750Z,58.00
2023-06-06T20:09:42.006Z,57.98
2023-06-06T20:12:36.296Z,58.22
2023-06-06T20:15:31.792Z,58.29
2023-06-06T20:18:26.006Z,58.18
2023-06-06T20:21:21.009Z,58.07
2023-06-06T20:24:15.189Z,58.55
2023-06-06T20:27:17.638Z,58.32
2023-06-06T20:30:17.741Z,58.08
2023-06-06T20:33:25.976Z,58.23
2023-06-06T20:36:19.896Z,58.10
2023-06-06T20:39:24.360Z,58.23
2023-06-06T20:42:19.216Z,58.36
2023-06-06T20:45:15.100Z,58.35
2023-06-06T20:48:10.673Z,58.62
2023-06-06T20:51:05.201Z,58.51
2023-06-06T20:53:59.322Z,58.61
2023-06-06T20:56:53.892Z,58.75
2023-06-06T20:59:47.727Z,58.75
2023-06-06T21:02:42.145Z,59.05
2023-06-06T21:05:36.161Z,59.28
2023-06-06T21:08:30.529Z,59.02
2023-06-06T21:11:24.556Z,59.06
2023-06-06T21:14:18.586Z,59.33
2023-06-06T21:17:12.525Z,59.30
2023-06-06T21:20:08.144Z,59.28
2023-06-06T21:23:02.697Z,59.05
2023-06-06T21:25:56.925Z,59.27
2023-06-06T21:28:51.481Z,59.24
2023-06-06T21:31:45.645Z,59.38
2023-06-06T21:34:40.211Z,59.30
2023-06-06T21:37:34.291Z,59.57
2023-06-06T21:40:28.074Z,59.78
2023-06-06T21:43:21.875Z,59.48
2023-06-06T21:46:15.872Z,59.48
2023-06-06T21:49:09.861Z,59.93
2023-06-06T21:52:03.888Z,60.50
2023-06-06T21:54:58.059Z,60.88
2023-06-06T21:57:52.012Z,60.39
2023-06-06T22:00:46.079Z,61.01
2023-06-06T22:03:40.445Z,60.80
2023-06-06T22:06:34.699Z,61.91
2023-06-06T22:09:28.964Z,61.22
2023-06-06T22:12:23.324Z,61.74
2023-06-06T22:15:17.632Z,61.41
2023-06-06T22:18:12.074Z,61.05
2023-06-06T22:21:40.732Z,61.76
2023-06-06T22:25:03.998Z,61.92
2023-06-06T22:28:17.923Z,62.46
2023-06-06T22:31:15.644Z,61.84
2023-06-06T22:34:12.915Z,62.48
2023-06-06T22:37:24.879Z,62.30
2023-06-06T22:40:48.906Z,61.91
2023-06-06T22:43:51.284Z,62.85
2023-06-06T22:47:05.909Z,62.59
2023-06-06T22:50:22.890Z,62.40
2023-06-06T22:53:39.944Z,62.92
2023-06-06T22:57:20.887Z,62.93
2023-06-06T23:01:00.329Z,63.67
2023-06-06T23:04:39.637Z,64.41
2023-06-06T23:08:22.068Z,64.33
2023-06-06T23:12:02.367Z,64.56
2023-06-06T23:15:19.380Z,65.38
2023-06-06T23:18:36.394Z,66.07
2023-06-06T23:21:31.014Z,66.15
2023-06-06T23:24:25.475Z,66.56
2023-06-06T23:27:20.035Z,65.59
2023-06-06T23:30:15.504Z,66.38
2023-06-06T23:33:10.786Z,65.49
2023-06-06T23:36:05.912Z,65.78
2023-06-06T23:39:00.575Z,66.36
2023-06-06T23:41:55.172Z,66.20
2023-06-06T23:44:49.733Z,66.31
2023-06-06T23:47:43.971Z,66.74
2023-06-06T23:50:38.406Z,67.20
2023-06-06T23:53:32.664Z,67.46
2023-06-06T23:56:26.884Z,67.51
2023-06-06T23:59:21.203Z,67.65
